createdAt,value
2024-02-13T00:00:59.502Z,993.11
2024-02-13T00:01:59.416Z,993.16
2024-02-13T00:02:59.448Z,993.15
2024-02-13T00:03:59.491Z,993.07
2024-02-13T00:04:59.358Z,993.14
2024-02-13T00:05:59.388Z,993.10
2024-02-13T00:06:59.309Z,993.14
2024-02-13T00:07:59.289Z,993.14
2024-02-13T00:08:59.350Z,993.13
2024-02-13T00:09:59.212Z,993.17
2024-02-13T00:10:59.276Z,993.23
2024-02-13T00:11:59.246Z,993.23
2024-02-13T00:12:59.141Z,993.22
2024-02-13T00:13:59.145Z,993.27
2024-02-13T00:14:59.158Z,993.26
2024-02-13T00:15:59.092Z,993.29
2024-02-13T00:16:59.036Z,993.30
2024-02-13T00:17:59.153Z,993.34
2024-02-13T00:18:59.011Z,993.36
2024-02-13T00:19:58.977Z,993.38
2024-02-13T00:20:58.977Z,993.42
2024-02-13T00:21:58.932Z,993.40
2024-02-13T00:22:58.883Z,993.45
2024-02-13T00:23:58.953Z,993.47
2024-02-13T00:24:58.839Z,993.47
2024-02-13T00:25:58.816Z,993.46
2024-02-13T00:26:58.838Z,993.50
2024-02-13T00:27:58.763Z,993.52
2024-02-13T00:28:58.746Z,993.51
2024-02-13T00:29:58.710Z,993.52
2024-02-13T00:30:58.708Z,993.52
2024-02-13T00:31:58.664Z,993.51
2024-02-13T00:32:58.715Z,993.57
2024-02-13T00:33:58.630Z,993.55
2024-02-13T00:34:58.668Z,993.61
2024-02-13T00:35:58.594Z,993.58
2024-02-13T00:36:58.535Z,993.62
2024-02-13T00:37:58.563Z,993.64
2024-02-13T00:38:58.492Z,993.66
2024-02-13T00:39:58.456Z,993.67
2024-02-13T00:40:58.422Z,993.73
2024-02-13T00:41:58.437Z,993.73
2024-02-13T00:42:58.400Z,993.77
2024-02-13T00:43:58.356Z,993.80
2024-02-13T00:44:58.435Z,993.80
2024-02-13T00:45:58.307Z,993.85
2024-02-13T00:46:58.357Z,993.85
2024-02-13T00:47:58.348Z,993.84
2024-02-13T00:48:58.284Z,993.87
2024-02-13T00:49:58.212Z,993.87
2024-02-13T00:50:58.251Z,993.85
2024-02-13T00:51:58.151Z,993.91
2024-02-13T00:52:58.133Z,993.90
2024-02-13T00:53:58.164Z,993.91
2024-02-13T00:54:58.149Z,993.93
2024-02-13T00:55:58.056Z,993.93
2024-02-13T00:56:58.200Z,993.97
2024-02-13T00:57:58.029Z,993.92
2024-02-13T00:58:58.005Z,993.95
2024-02-13T00:59:58.035Z,993.98
2024-02-13T01:00:57.953Z,993.99
2024-02-13T01:01:57.898Z,993.99
2024-02-13T01:02:57.907Z,993.99
2024-02-13T01:03:57.918Z,994.00
2024-02-13T01:04:57.852Z,994.01
2024-02-13T01:05:57.876Z,994.02
2024-02-13T01:06:57.953Z,994.03
2024-02-13T01:07:57.750Z,994.04
2024-02-13T01:08:57.821Z,994.06
2024-02-13T01:09:57.688Z,994.08
2024-02-13T01:10:57.658Z,994.11
2024-02-13T01:11:57.725Z,994.13
2024-02-13T01:12:57.616Z,994.13
2024-02-13T01:13:57.629Z,994.12
2024-02-13T01:14:57.650Z,994.13
2024-02-13T01:15:57.541Z,994.19
2024-02-13T01:16:57.516Z,994.12
2024-02-13T01:17:57.535Z,994.18
2024-02-13T01:18:57.549Z,994.18
2024-02-13T01:19:57.431Z,994.21
2024-02-13T01:20:57.429Z,994.24
2024-02-13T01:21:57.397Z,994.21
2024-02-13T01:22:57.381Z,994.23
2024-02-13T01:23:57.404Z,994.24
2024-02-13T01:24:57.312Z,994.25
2024-02-13T01:25:57.281Z,994.22
2024-02-13T01:26:57.280Z,994.28
2024-02-13T01:27:57.233Z,994.28
2024-02-13T01:28:57.200Z,994.27
2024-02-13T01:29:57.236Z,994.27
2024-02-13T01:30:57.154Z,994.27
2024-02-13T01:31:57.126Z,994.30
2024-02-13T01:32:57.354Z,994.26
2024-02-13T01:33:57.233Z,994.25
2024-02-13T01:34:57.048Z,994.29
2024-02-13T01:35:57.062Z,994.27
2024-02-13T01:36:56.997Z,994.32
2024-02-13T01:37:57.696Z,994.27
2024-02-13T01:38:57.051Z,994.29
2024-02-13T01:39:56.939Z,994.35
2024-02-13T01:40:56.903Z,994.32
2024-02-13T01:41:56.903Z,994.34
2024-02-13T01:42:56.847Z,994.39
2024-02-13T01:43:56.849Z,994.39
2024-02-13T01:44:56.830Z,994.39
2024-02-13T01:45:56.770Z,994.38
2024-02-13T01:46:56.757Z,994.37
2024-02-13T01:47:56.903Z,994.38
2024-02-13T01:48:56.743Z,994.38
2024-02-13T01:49:56.669Z,994.37
2024-02-13T01:50:56.670Z,994.39
2024-02-13T01:51:56.617Z,994.40
2024-02-13T01:52:56.589Z,994.39
2024-02-13T01:53:56.653Z,994.46
2024-02-13T01:54:56.533Z,994.48
2024-02-13T01:55:56.521Z,994.47
2024-02-13T01:56:56.546Z,994.46
2024-02-13T01:57:56.478Z,994.48
2024-02-13T01:58:56.480Z,994.49
2024-02-13T01:59:56.465Z,994.47
2024-02-13T02:00:56.424Z,994.48
2024-02-13T02:01:56.349Z,994.50
2024-02-13T02:02:56.374Z,994.47
2024-02-13T02:03:56.398Z,994.52
2024-02-13T02:04:56.318Z,994.54
2024-02-13T02:05:56.346Z,994.55
2024-02-13T02:06:56.266Z,994.57
2024-02-13T02:07:56.202Z,994.57
2024-02-13T02:08:56.259Z,994.56
2024-02-13T02:09:56.238Z,994.60
2024-02-13T02:10:56.131Z,994.59
2024-02-13T02:11:56.216Z,994.61
2024-02-13T02:12:56.068Z,994.59
2024-02-13T02:13:56.054Z,994.60
2024-02-13T02:14:56.057Z,994.64
2024-02-13T02:15:56.057Z,994.62
2024-02-13T02:16:55.965Z,994.64
2024-02-13T02:17:56.174Z,994.63
2024-02-13T02:18:56.069Z,994.68
2024-02-13T02:19:55.883Z,994.66
2024-02-13T02:20:55.887Z,994.65
2024-02-13T02:21:55.847Z,994.68
2024-02-13T02:22:55.809Z,994.65
2024-02-13T02:23:55.923Z,994.65
2024-02-13T02:24:55.792Z,994.66
2024-02-13T02:25:55.777Z,994.64
2024-02-13T02:26:55.808Z,994.66
2024-02-13T02:27:55.765Z,994.66
2024-02-13T02:28:55.713Z,994.66
2024-02-13T02:29:55.709Z,994.70
2024-02-13T02:30:55.641Z,994.69
2024-02-13T02:31:55.575Z,994.73
2024-02-13T02:32:55.574Z,994.71
2024-02-13T02:33:55.689Z,994.68
2024-02-13T02:34:55.595Z,994.72
2024-02-13T02:35:55.599Z,994.69
2024-02-13T02:36:55.469Z,994.70
2024-02-13T02:37:55.467Z,994.68
2024-02-13T02:38:55.482Z,994.76
2024-02-13T02:39:55.403Z,994.73
2024-02-13T02:40:55.384Z,994.72
2024-02-13T02:41:55.444Z,994.74
2024-02-13T02:42:55.352Z,994.78
2024-02-13T02:43:55.313Z,994.73
2024-02-13T02:44:55.328Z,994.76
2024-02-13T02:45:55.221Z,994.80
2024-02-13T02:46:55.205Z,994.81
2024-02-13T02:47:55.286Z,994.84
2024-02-13T02:48:55.261Z,994.84
2024-02-13T02:49:55.172Z,994.85
2024-02-13T02:50:55.184Z,994.89
2024-02-13T02:51:55.091Z,994.91
2024-02-13T02:52:55.026Z,994.88
2024-02-13T02:53:55.067Z,994.90
2024-02-13T02:54:54.986Z,994.90
2024-02-13T02:55:54.954Z,994.90
2024-02-13T02:56:54.991Z,994.90
2024-02-13T02:57:54.951Z,994.93
2024-02-13T02:58:54.912Z,995.00
2024-02-13T02:59:54.896Z,994.99
2024-02-13T03:00:54.944Z,994.99
2024-02-13T03:01:54.808Z,994.98
2024-02-13T03:02:54.895Z,995.02
2024-02-13T03:03:54.789Z,995.00
2024-02-13T03:04:54.726Z,995.04
2024-02-13T03:05:54.792Z,995.05
2024-02-13T03:06:54.708Z,995.04
2024-02-13T03:07:54.662Z,995.04
2024-02-13T03:08:54.631Z,995.01
2024-02-13T03:09:54.598Z,995.04
2024-02-13T03:10:54.555Z,995.07
2024-02-13T03:11:54.571Z,995.09
2024-02-13T03:12:54.514Z,995.10
2024-02-13T03:13:54.537Z,995.09
2024-02-13T03:14:54.480Z,995.09
2024-02-13T03:15:54.462Z,995.10
2024-02-13T03:16:54.430Z,995.10
2024-02-13T03:17:54.485Z,995.12
2024-02-13T03:18:54.432Z,995.11
2024-02-13T03:19:54.338Z,995.11
2024-02-13T03:20:54.329Z,995.11
2024-02-13T03:21:54.350Z,995.12
2024-02-13T03:22:54.281Z,995.12
2024-02-13T03:23:54.273Z,995.15
2024-02-13T03:24:54.213Z,995.16
2024-02-13T03:25:54.192Z,995.15
2024-02-13T03:26:54.180Z,995.16
2024-02-13T03:27:54.206Z,995.18
2024-02-13T03:28:54.148Z,995.16
2024-02-13T03:29:54.119Z,995.17
2024-02-13T03:30:54.078Z,995.24
2024-02-13T03:31:54.027Z,995.26
2024-02-13T03:32:54.179Z,995.26
2024-02-13T03:33:54.110Z,995.26
2024-02-13T03:34:53.944Z,995.25
2024-02-13T03:35:53.949Z,995.27
2024-02-13T03:36:53.925Z,995.27
2024-02-13T03:37:53.893Z,995.26
2024-02-13T03:38:53.922Z,995.25
2024-02-13T03:39:53.810Z,995.26
2024-02-13T03:40:53.804Z,995.26
2024-02-13T03:41:53.937Z,995.25
2024-02-13T03:42:53.737Z,995.27
2024-02-13T03:43:53.721Z,995.30
2024-02-13T03:44:53.697Z,995.34
2024-02-13T03:45:53.725Z,995.31
2024-02-13T03:46:53.698Z,995.33
2024-02-13T03:47:53.661Z,995.31
2024-02-13T03:48:53.692Z,995.37
2024-02-13T03:49:53.602Z,995.34
2024-02-13T03:50:53.564Z,995.38
2024-02-13T03:51:53.511Z,995.38
2024-02-13T03:52:54.232Z,995.40
2024-02-13T03:53:53.572Z,995.37
2024-02-13T03:54:53.462Z,995.37
2024-02-13T03:55:53.401Z,995.38
2024-02-13T03:56:53.425Z,995.38
2024-02-13T03:57:53.358Z,995.39
2024-02-13T03:58:53.327Z,995.42
2024-02-13T03:59:53.374Z,995.45
2024-02-13T04:00:53.314Z,995.45
2024-02-13T04:01:53.306Z,995.48
2024-02-13T04:02:53.245Z,995.49
2024-02-13T04:03:53.241Z,995.48
2024-02-13T04:04:53.172Z,995.51
2024-02-13T04:05:53.214Z,995.52
2024-02-13T04:06:53.134Z,995.56
2024-02-13T04:07:53.091Z,995.60
2024-02-13T04:08:53.114Z,995.59
2024-02-13T04:09:53.057Z,995.56
2024-02-13T04:10:53.023Z,995.58
2024-02-13T04:11:53.021Z,995.59
2024-02-13T04:12:52.956Z,995.60
2024-02-13T04:13:52.945Z,995.58
2024-02-13T04:14:52.951Z,995.57
2024-02-13T04:15:56.583Z,995.55
2024-02-13T04:16:52.872Z,995.63
2024-02-13T04:17:53.008Z,995.64
2024-02-13T04:18:52.845Z,995.66
2024-02-13T04:19:52.841Z,995.68
2024-02-13T04:20:52.779Z,995.70
2024-02-13T04:21:52.732Z,995.72
2024-02-13T04:22:52.692Z,995.71
2024-02-13T04:23:52.749Z,995.69
2024-02-13T04:24:52.673Z,995.65
2024-02-13T04:25:52.658Z,995.69
2024-02-13T04:26:52.625Z,995.69
2024-02-13T04:27:52.576Z,995.66
2024-02-13T04:28:52.550Z,995.66
2024-02-13T04:29:52.645Z,995.67
2024-02-13T04:30:52.502Z,995.63
2024-02-13T04:31:52.467Z,995.64
2024-02-13T04:32:53.495Z,995.64
2024-02-13T04:33:52.620Z,995.62
2024-02-13T04:34:52.487Z,995.66
2024-02-13T04:35:52.408Z,995.67
2024-02-13T04:36:52.343Z,995.67
2024-02-13T04:37:52.325Z,995.70
2024-02-13T04:38:52.444Z,995.71
2024-02-13T04:41:22.916Z,995.76
2024-02-13T04:42:13.471Z,995.74
2024-02-13T04:43:13.446Z,995.78
2024-02-13T04:44:13.452Z,995.74
2024-02-13T04:45:22.074Z,995.74
2024-02-13T04:47:07.030Z,995.73
2024-02-13T04:48:16.477Z,995.75
2024-02-13T04:50:00.596Z,995.78
2024-02-13T04:51:00.736Z,995.83
2024-02-13T04:52:00.516Z,995.84
2024-02-13T04:53:00.505Z,995.82
2024-02-13T04:54:00.490Z,995.85
2024-02-13T04:55:00.442Z,995.85
2024-02-13T04:56:00.455Z,995.84
2024-02-13T04:57:00.427Z,995.83
2024-02-13T04:58:00.412Z,995.85
2024-02-13T04:59:00.362Z,995.85
2024-02-13T05:00:00.344Z,995.84
2024-02-13T05:01:00.324Z,995.90
2024-02-13T05:02:00.292Z,995.91
2024-02-13T05:03:00.233Z,995.89
2024-02-13T05:04:00.221Z,995.91
2024-02-13T05:05:00.195Z,995.93
2024-02-13T05:06:00.381Z,995.92
2024-02-13T05:07:00.171Z,995.93
2024-02-13T05:08:00.140Z,995.91
2024-02-13T05:09:00.103Z,995.91
2024-02-13T05:10:00.091Z,995.92
2024-02-13T05:11:00.030Z,995.95
2024-02-13T05:12:00.076Z,995.90
2024-02-13T05:13:00.000Z,995.92
2024-02-13T05:14:00.862Z,995.94
2024-02-13T05:14:59.981Z,995.97
2024-02-13T05:15:59.916Z,995.92
2024-02-13T05:16:59.883Z,995.91
2024-02-13T05:18:00.016Z,995.92
2024-02-13T05:19:00.058Z,995.93
2024-02-13T05:19:59.820Z,995.95
2024-02-13T05:20:59.813Z,995.94
2024-02-13T05:21:59.760Z,996.00
2024-02-13T05:22:59.722Z,995.93
2024-02-13T05:23:59.725Z,995.98
2024-02-13T05:24:59.699Z,995.99
2024-02-13T05:26:00.336Z,996.01
2024-02-13T05:26:59.655Z,995.99
2024-02-13T05:27:59.605Z,996.01
2024-02-13T05:28:59.589Z,995.97
2024-02-13T05:29:59.576Z,995.99
2024-02-13T05:30:59.511Z,995.98
2024-02-13T05:31:59.510Z,996.01
2024-02-13T05:32:59.623Z,996.03
2024-02-13T05:33:59.502Z,996.01
2024-02-13T05:34:59.419Z,995.96
2024-02-13T05:35:59.394Z,996.03
2024-02-13T05:36:59.364Z,996.01
2024-02-13T05:37:59.344Z,996.02
2024-02-13T05:38:59.351Z,996.05
2024-02-13T05:39:59.293Z,996.07
2024-02-13T05:40:59.273Z,996.05
2024-02-13T05:41:59.303Z,996.05
2024-02-13T05:42:59.209Z,996.06
2024-02-13T05:43:59.178Z,996.05
2024-02-13T05:44:59.848Z,996.03
2024-02-13T05:45:59.197Z,996.06
2024-02-13T05:46:59.109Z,996.10
2024-02-13T05:47:59.155Z,996.10
2024-02-13T05:48:59.091Z,996.12
2024-02-13T05:49:59.048Z,996.15
2024-02-13T05:50:58.995Z,996.16
2024-02-13T05:51:58.987Z,996.12
2024-02-13T05:52:58.941Z,996.13
2024-02-13T05:53:59.189Z,996.16
2024-02-13T05:54:58.925Z,996.11
2024-02-13T05:55:59.021Z,996.13
2024-02-13T05:56:58.899Z,996.16
2024-02-13T05:57:58.823Z,996.17
2024-02-13T05:58:59.307Z,996.19
2024-02-13T05:59:58.869Z,996.17
2024-02-13T06:00:59.293Z,996.22
2024-02-13T06:01:58.854Z,996.25
2024-02-13T06:02:58.734Z,996.24
2024-02-13T06:03:58.961Z,996.23
2024-02-13T06:04:58.632Z,996.24
2024-02-13T06:05:58.627Z,996.24
2024-02-13T06:06:58.666Z,996.23
2024-02-13T06:07:58.556Z,996.24
2024-02-13T06:08:58.618Z,996.28
2024-02-13T06:09:58.549Z,996.32
2024-02-13T06:10:58.493Z,996.31
2024-02-13T06:11:58.599Z,996.34
2024-02-13T06:12:58.420Z,996.39
2024-02-13T06:13:58.398Z,996.38
2024-02-13T06:14:58.415Z,996.39
2024-02-13T06:15:58.357Z,996.40
2024-02-13T06:16:58.329Z,996.41
2024-02-13T06:17:58.384Z,996.40
2024-02-13T06:18:58.329Z,996.46
2024-02-13T06:19:58.283Z,996.49
2024-02-13T06:20:58.328Z,996.49
2024-02-13T06:21:58.202Z,996.50
2024-02-13T06:22:58.174Z,996.49
2024-02-13T06:23:58.201Z,996.54
2024-02-13T06:24:58.109Z,996.60
2024-02-13T06:25:58.153Z,996.61
2024-02-13T06:26:58.125Z,996.60
2024-02-13T06:27:58.051Z,996.61
2024-02-13T06:28:58.005Z,996.63
2024-02-13T06:29:58.043Z,996.65
2024-02-13T06:30:57.961Z,996.63
2024-02-13T06:31:57.938Z,996.67
2024-02-13T06:32:58.107Z,996.64
2024-02-13T06:33:58.068Z,996.66
2024-02-13T06:34:57.876Z,996.64
2024-02-13T06:35:58.013Z,996.66
2024-02-13T06:36:57.801Z,996.68
2024-02-13T06:37:57.792Z,996.66
2024-02-13T06:38:57.842Z,996.68
2024-02-13T06:39:57.752Z,996.70
2024-02-13T06:40:57.733Z,996.69
2024-02-13T06:41:57.708Z,996.70
2024-02-13T06:42:57.651Z,996.69
2024-02-13T06:43:57.629Z,996.68
2024-02-13T06:44:57.688Z,996.70
2024-02-13T06:45:57.591Z,996.72
2024-02-13T06:46:57.574Z,996.72
2024-02-13T06:47:57.620Z,996.72
2024-02-13T06:48:57.635Z,996.71
2024-02-13T06:49:57.599Z,996.72
2024-02-13T06:50:57.625Z,996.65
2024-02-13T06:51:57.447Z,996.68
2024-02-13T06:52:57.638Z,996.72
2024-02-13T06:53:57.524Z,996.70
2024-02-13T06:54:57.354Z,996.73
2024-02-13T06:55:57.334Z,996.73
2024-02-13T06:56:57.385Z,996.77
2024-02-13T06:57:57.286Z,996.79
2024-02-13T06:58:57.262Z,996.78
2024-02-13T06:59:57.293Z,996.81
2024-02-13T07:00:57.212Z,996.83
2024-02-13T07:01:57.177Z,996.85
2024-02-13T07:02:57.203Z,996.85
2024-02-13T07:03:57.199Z,996.87
2024-02-13T07:04:57.092Z,996.92
2024-02-13T07:05:57.405Z,996.95
2024-02-13T07:07:08.186Z,996.97
2024-02-13T07:07:57.107Z,997.01
2024-02-13T07:08:57.138Z,997.00
2024-02-13T07:09:57.067Z,997.02
2024-02-13T07:10:56.938Z,997.04
2024-02-13T07:11:56.925Z,997.09
2024-02-13T07:12:56.895Z,997.06
2024-02-13T07:13:56.875Z,997.07
2024-02-13T07:14:56.945Z,997.07
2024-02-13T07:15:56.876Z,997.01
2024-02-13T07:16:56.790Z,997.05
2024-02-13T07:18:00.840Z,997.05
2024-02-13T07:18:56.874Z,997.07
2024-02-13T07:19:56.855Z,997.11
2024-02-13T07:21:01.049Z,997.12
2024-02-13T07:21:57.357Z,997.14
2024-02-13T07:22:56.736Z,997.17
2024-02-13T07:23:56.668Z,997.21
2024-02-13T07:24:56.591Z,997.25
2024-02-13T07:25:56.561Z,997.28
2024-02-13T07:26:56.573Z,997.30
2024-02-13T07:27:56.573Z,997.27
2024-02-13T07:28:56.505Z,997.30
2024-02-13T07:29:56.587Z,997.35
2024-02-13T07:30:56.453Z,997.34
2024-02-13T07:31:56.432Z,997.33
2024-02-13T07:32:56.503Z,997.36
2024-02-13T07:33:56.522Z,997.37
2024-02-13T07:34:56.395Z,997.33
2024-02-13T07:35:56.540Z,997.36
2024-02-13T07:36:56.289Z,997.35
2024-02-13T07:37:56.260Z,997.36
2024-02-13T07:38:56.290Z,997.34
2024-02-13T07:39:56.212Z,997.35
2024-02-13T07:40:56.185Z,997.40
2024-02-13T07:41:56.195Z,997.32
2024-02-13T07:42:56.148Z,997.36
2024-02-13T07:43:56.154Z,997.32
2024-02-13T07:44:56.097Z,997.31
2024-02-13T07:45:56.090Z,997.35
2024-02-13T07:46:56.042Z,997.37
2024-02-13T07:47:56.967Z,997.38
2024-02-13T07:48:56.045Z,997.42
2024-02-13T07:49:55.965Z,997.46
2024-02-13T07:50:55.977Z,997.46
2024-02-13T07:51:55.901Z,997.43
2024-02-13T07:52:55.875Z,997.46
2024-02-13T07:54:04.532Z,997.47
2024-02-13T07:55:49.497Z,997.50
2024-02-13T07:56:49.715Z,997.48
2024-02-13T07:57:49.474Z,997.51
2024-02-13T07:58:49.413Z,997.50
2024-02-13T07:59:49.471Z,997.47
2024-02-13T08:00:49.399Z,997.49
2024-02-13T08:01:49.395Z,997.50
2024-02-13T08:02:49.349Z,997.55
2024-02-13T08:03:49.345Z,997.55
2024-02-13T08:04:49.268Z,997.57
2024-02-13T08:05:49.361Z,997.61
2024-02-13T08:06:49.218Z,997.63
2024-02-13T08:07:49.184Z,997.60
2024-02-13T08:08:49.327Z,997.60
2024-02-13T08:09:49.146Z,997.61
2024-02-13T08:10:49.105Z,997.65
2024-02-13T08:11:49.756Z,997.62
2024-02-13T08:12:49.069Z,997.66
2024-02-13T08:13:49.044Z,997.65
2024-02-13T08:14:49.816Z,997.68
2024-02-13T08:15:49.021Z,997.65
2024-02-13T08:16:48.966Z,997.67
2024-02-13T08:17:49.047Z,997.69
2024-02-13T08:18:48.935Z,997.66
2024-02-13T08:19:49.055Z,997.65
2024-02-13T08:20:48.965Z,997.63
2024-02-13T08:21:48.857Z,997.62
2024-02-13T08:22:48.834Z,997.62
2024-02-13T08:23:48.846Z,997.63
2024-02-13T08:24:48.778Z,997.56
2024-02-13T08:25:48.760Z,997.57
2024-02-13T08:26:48.819Z,997.55
2024-02-13T08:27:48.696Z,997.56
2024-02-13T08:28:48.705Z,997.57
2024-02-13T08:29:48.702Z,997.59
2024-02-13T08:30:48.615Z,997.63
2024-02-13T08:31:48.612Z,997.62
2024-02-13T08:32:48.775Z,997.61
2024-02-13T08:33:48.982Z,997.57
2024-02-13T08:34:48.625Z,997.59
2024-02-13T08:35:48.581Z,997.64
2024-02-13T08:36:48.581Z,997.64
2024-02-13T08:37:48.452Z,997.63
2024-02-13T08:38:48.444Z,997.65
2024-02-13T08:39:48.399Z,997.71
2024-02-13T08:40:48.473Z,997.68
2024-02-13T08:41:48.405Z,997.71
2024-02-13T08:42:48.398Z,997.69
2024-02-13T08:43:48.310Z,997.68
2024-02-13T08:44:48.379Z,997.64
2024-02-13T08:45:48.250Z,997.67
2024-02-13T08:46:48.245Z,997.65
2024-02-13T08:47:48.269Z,997.68
2024-02-13T08:48:48.301Z,997.66
2024-02-13T08:49:48.274Z,997.68
2024-02-13T08:50:48.171Z,997.67
2024-02-13T08:51:48.137Z,997.70
2024-02-13T08:52:48.085Z,997.70
2024-02-13T08:53:48.100Z,997.70
2024-02-13T08:54:48.033Z,997.73
2024-02-13T08:55:48.724Z,997.74
2024-02-13T08:56:48.005Z,997.74
2024-02-13T08:57:47.969Z,997.75
2024-02-13T08:58:47.971Z,997.76
2024-02-13T08:59:47.995Z,997.76
2024-02-13T09:00:47.933Z,997.78
2024-02-13T09:01:47.911Z,997.80
2024-02-13T09:02:47.878Z,997.81
2024-02-13T09:03:57.304Z,997.86
2024-02-13T09:05:41.537Z,997.91
2024-02-13T09:06:41.485Z,997.87
2024-02-13T09:07:41.355Z,997.90
2024-02-13T09:08:43.208Z,997.91
2024-02-13T09:09:41.310Z,997.96
2024-02-13T09:10:41.303Z,997.98
2024-02-13T09:11:41.295Z,997.95
2024-02-13T09:12:41.316Z,997.94
2024-02-13T09:13:41.264Z,997.96
2024-02-13T09:14:41.292Z,997.95
2024-02-13T09:15:41.167Z,997.98
2024-02-13T09:16:41.166Z,997.93
2024-02-13T09:17:41.202Z,997.97
2024-02-13T09:18:41.366Z,998.02
2024-02-13T09:19:41.134Z,998.00
2024-02-13T09:20:41.130Z,998.05
2024-02-13T09:21:41.057Z,998.06
2024-02-13T09:22:41.711Z,998.04
2024-02-13T09:23:41.016Z,998.09
2024-02-13T09:24:41.005Z,998.09
2024-02-13T09:25:40.957Z,998.10
2024-02-13T09:26:40.934Z,998.11
2024-02-13T09:27:40.914Z,998.06
2024-02-13T09:28:40.894Z,998.11
2024-02-13T09:29:40.890Z,998.07
2024-02-13T09:30:40.833Z,998.08
2024-02-13T09:31:42.294Z,998.05
2024-02-13T09:32:40.851Z,998.03
2024-02-13T09:33:41.044Z,998.08
2024-02-13T09:34:40.760Z,998.06
2024-02-13T09:35:40.799Z,998.02
2024-02-13T09:36:40.708Z,998.05
2024-02-13T09:37:44.031Z,998.06
2024-02-13T09:38:40.707Z,998.05
2024-02-13T09:39:40.625Z,998.01
2024-02-13T09:40:40.592Z,998.03
2024-02-13T09:41:40.584Z,998.03
2024-02-13T09:42:40.557Z,998.03
2024-02-13T09:43:44.995Z,998.06
2024-02-13T09:44:40.539Z,998.07
2024-02-13T09:45:40.482Z,998.06
2024-02-13T09:46:40.461Z,998.06
2024-02-13T09:47:40.541Z,998.06
2024-02-13T09:48:40.549Z,998.10
2024-02-13T09:49:44.320Z,998.11
2024-02-13T09:50:40.399Z,998.12
2024-02-13T09:51:40.363Z,998.14
2024-02-13T09:52:40.337Z,998.12
2024-02-13T09:53:40.351Z,998.11
2024-02-13T09:54:40.294Z,998.10
2024-02-13T09:55:43.376Z,998.14
2024-02-13T09:56:40.277Z,998.12
2024-02-13T09:57:40.222Z,998.11
2024-02-13T09:58:40.699Z,998.15
2024-02-13T09:59:40.240Z,998.17
2024-02-13T10:00:40.173Z,998.22
2024-02-13T10:01:40.212Z,998.23
2024-02-13T10:02:40.375Z,998.26
2024-02-13T10:03:40.390Z,998.26
2024-02-13T10:04:40.090Z,998.24
2024-02-13T10:05:40.105Z,998.25
2024-02-13T10:06:40.149Z,998.27
2024-02-13T10:07:41.795Z,998.26
2024-02-13T10:08:39.962Z,998.29
2024-02-13T10:09:39.927Z,998.29
2024-02-13T10:10:39.914Z,998.29
2024-02-13T10:11:39.906Z,998.37
2024-02-13T10:12:39.873Z,998.32
2024-02-13T10:13:44.978Z,998.36
2024-02-13T10:14:39.945Z,998.33
2024-02-13T10:15:39.805Z,998.33
2024-02-13T10:16:39.776Z,998.35
2024-02-13T10:17:39.769Z,998.37
2024-02-13T10:18:39.920Z,998.43
2024-02-13T10:19:39.770Z,998.43
2024-02-13T10:20:39.740Z,998.47
2024-02-13T10:21:39.661Z,998.46
2024-02-13T10:22:39.639Z,998.41
2024-02-13T10:23:39.679Z,998.40
2024-02-13T10:24:39.600Z,998.40
2024-02-13T10:25:39.567Z,998.41
2024-02-13T10:26:39.673Z,998.37
2024-02-13T10:27:39.534Z,998.36
2024-02-13T10:28:39.505Z,998.39
2024-02-13T10:29:40.264Z,998.42
2024-02-13T10:30:40.216Z,998.45
2024-02-13T10:31:41.808Z,998.44
2024-02-13T10:32:39.539Z,998.46
2024-02-13T10:33:39.500Z,998.43
2024-02-13T10:34:39.556Z,998.42
2024-02-13T10:35:39.499Z,998.44
2024-02-13T10:36:39.426Z,998.46
2024-02-13T10:37:40.225Z,998.46
2024-02-13T10:38:39.405Z,998.49
2024-02-13T10:39:39.280Z,998.49
2024-02-13T10:40:39.273Z,998.49
2024-02-13T10:41:39.248Z,998.55
2024-02-13T10:42:39.183Z,998.56
2024-02-13T10:43:40.580Z,998.57
2024-02-13T10:44:39.168Z,998.56
2024-02-13T10:45:39.124Z,998.59
2024-02-13T10:46:39.098Z,998.61
2024-02-13T10:47:39.164Z,998.63
2024-02-13T10:48:39.301Z,998.58
2024-02-13T10:49:42.517Z,998.61
2024-02-13T10:50:39.081Z,998.60
2024-02-13T10:51:39.002Z,998.57
2024-02-13T10:52:38.965Z,998.59
2024-02-13T10:53:39.008Z,998.59
2024-02-13T10:54:38.971Z,998.58
2024-02-13T10:55:42.653Z,998.57
2024-02-13T10:56:39.043Z,998.56
2024-02-13T10:57:38.858Z,998.56
2024-02-13T10:58:38.893Z,998.57
2024-02-13T10:59:38.852Z,998.56
2024-02-13T11:00:38.871Z,998.55
2024-02-13T11:01:38.841Z,998.57
2024-02-13T11:02:38.776Z,998.56
2024-02-13T11:03:38.746Z,998.49
2024-02-13T11:04:38.726Z,998.56
2024-02-13T11:05:38.728Z,998.52
2024-02-13T11:06:38.684Z,998.63
2024-02-13T11:07:41.469Z,998.57
2024-02-13T11:08:38.677Z,998.53
2024-02-13T11:09:38.604Z,998.61
2024-02-13T11:10:38.557Z,998.58
2024-02-13T11:11:38.549Z,998.53
2024-02-13T11:12:38.502Z,998.56
2024-02-13T11:13:38.471Z,998.56
2024-02-13T11:14:38.571Z,998.55
2024-02-13T11:15:38.429Z,998.45
2024-02-13T11:16:38.422Z,998.57
2024-02-13T11:17:38.459Z,998.53
2024-02-13T11:18:38.654Z,998.51
2024-02-13T11:19:41.292Z,998.46
2024-02-13T11:20:38.376Z,998.47
2024-02-13T11:21:38.331Z,998.47
2024-02-13T11:22:38.576Z,998.55
2024-02-13T11:23:38.307Z,998.50
2024-02-13T11:24:38.271Z,998.54
2024-02-13T11:25:40.472Z,998.57
2024-02-13T11:26:38.242Z,998.59
2024-02-13T11:27:39.304Z,998.52
2024-02-13T11:28:38.138Z,998.52
2024-02-13T11:29:38.282Z,998.57
2024-02-13T11:30:38.267Z,998.49
2024-02-13T11:31:40.055Z,998.47
2024-02-13T11:32:38.363Z,998.48
2024-02-13T11:33:38.162Z,998.44
2024-02-13T11:34:38.196Z,998.52
2024-02-13T11:35:38.066Z,998.47
2024-02-13T11:36:38.121Z,998.41
2024-02-13T11:37:37.961Z,998.47
2024-02-13T11:38:37.971Z,998.40
2024-02-13T11:39:37.957Z,998.42
2024-02-13T11:40:37.886Z,998.41
2024-02-13T11:41:37.919Z,998.35
2024-02-13T11:42:37.857Z,998.38
2024-02-13T11:43:37.831Z,998.38
2024-02-13T11:44:37.917Z,998.32
2024-02-13T11:45:37.776Z,998.37
2024-02-13T11:46:37.834Z,998.40
2024-02-13T11:47:37.766Z,998.40
2024-02-13T11:48:37.817Z,998.44
2024-02-13T11:49:37.803Z,998.40
2024-02-13T11:50:37.749Z,998.39
2024-02-13T11:51:37.885Z,998.36
2024-02-13T11:52:37.640Z,998.34
2024-02-13T11:53:37.656Z,998.36
2024-02-13T11:54:37.715Z,998.30
2024-02-13T11:55:37.575Z,998.30
2024-02-13T11:56:37.595Z,998.29
2024-02-13T11:57:38.263Z,998.30
2024-02-13T11:58:37.520Z,998.32
2024-02-13T11:59:37.557Z,998.31
2024-02-13T12:00:37.494Z,998.34
2024-02-13T12:01:37.442Z,998.29
2024-02-13T12:02:39.605Z,998.36
2024-02-13T12:03:37.488Z,998.34
2024-02-13T12:04:37.443Z,998.32
2024-02-13T12:05:37.367Z,998.34
2024-02-13T12:06:37.409Z,998.32
2024-02-13T12:07:37.318Z,998.32
2024-02-13T12:08:37.357Z,998.33
2024-02-13T12:09:37.326Z,998.28
2024-02-13T12:10:37.266Z,998.31
2024-02-13T12:11:37.251Z,998.29
2024-02-13T12:12:37.214Z,998.31
2024-02-13T12:13:37.194Z,998.34
2024-02-13T12:14:37.199Z,998.33
2024-02-13T12:15:37.136Z,998.33
2024-02-13T12:16:37.148Z,998.40
2024-02-13T12:17:37.195Z,998.38
2024-02-13T12:18:37.408Z,998.38
2024-02-13T12:19:38.483Z,998.36
2024-02-13T12:20:37.089Z,998.34
2024-02-13T12:21:37.012Z,998.34
2024-02-13T12:22:37.020Z,998.43
2024-02-13T12:23:36.988Z,998.38
2024-02-13T12:24:36.957Z,998.42
2024-02-13T12:25:37.249Z,998.41
2024-02-13T12:26:36.922Z,998.38
2024-02-13T12:27:36.893Z,998.44
2024-02-13T12:28:36.871Z,998.42
2024-02-13T12:29:36.877Z,998.40
2024-02-13T12:30:36.847Z,998.33
2024-02-13T12:31:36.816Z,998.32
2024-02-13T12:32:36.889Z,998.27
2024-02-13T12:33:36.962Z,998.29